createdAt,value
2019-05-25T00:02:18.732Z,8.17
2019-05-25T00:04:49.283Z,12.13
2019-05-25T00:07:19.962Z,7.50
2019-05-25T00:09:50.430Z,5.73
2019-05-25T00:12:21.111Z,8.60
2019-05-25T00:14:51.603Z,6.30
2019-05-25T00:17:22.015Z,7.90
2019-05-25T00:19:52.413Z,9.57
2019-05-25T00:22:22.908Z,9.90
2019-05-25T00:24:53.593Z,7.73
2019-05-25T00:27:24.061Z,8.30
2019-05-25T00:29:54.505Z,9.70
2019-05-25T00:32:25.188Z,10.37
2019-05-25T00:34:55.725Z,8.50
2019-05-25T00:37:26.241Z,8.73
2019-05-25T00:39:56.790Z,6.47
2019-05-25T00:42:27.300Z,10.07
2019-05-25T00:44:57.740Z,4.93
2019-05-25T00:47:28.371Z,7.57
2019-05-25T00:49:58.845Z,6.97
2019-05-25T00:52:29.319Z,5.30
2019-05-25T00:54:59.796Z,6.00
2019-05-25T00:57:30.545Z,4.40
2019-05-25T01:00:01.030Z,6.40
2019-05-25T01:02:31.632Z,6.60
2019-05-25T01:05:02.181Z,5.67
2019-05-25T01:07:32.645Z,7.80
2019-05-25T01:10:03.208Z,5.60
2019-05-25T01:12:33.646Z,6.13
2019-05-25T01:15:05.804Z,6.70
2019-05-25T01:17:36.272Z,6.10
2019-05-25T01:20:08.190Z,6.63
2019-05-25T01:22:38.633Z,4.97
2019-05-25T01:25:10.778Z,4.83
2019-05-25T01:27:41.189Z,3.73
2019-05-25T01:30:12.719Z,5.87
2019-05-25T01:32:43.166Z,6.00
2019-05-25T01:35:13.999Z,9.13
2019-05-25T01:37:48.228Z,6.40
2019-05-25T01:40:17.090Z,6.33
2019-05-25T01:42:47.540Z,7.87
2019-05-25T01:45:18.368Z,6.90
2019-05-25T01:47:49.012Z,8.40
2019-05-25T01:50:19.537Z,4.07
2019-05-25T01:52:50.110Z,7.00
2019-05-25T01:55:20.730Z,3.40
2019-05-25T01:57:51.192Z,5.17
2019-05-25T02:00:22.395Z,4.43
2019-05-25T02:02:52.957Z,5.97
2019-05-25T02:05:23.394Z,7.67
2019-05-25T02:07:54.004Z,6.07
2019-05-25T02:10:24.468Z,4.40
2019-05-25T02:12:54.907Z,6.27
2019-05-25T02:15:25.379Z,6.00
2019-05-25T02:17:55.915Z,6.47
2019-05-25T02:20:26.388Z,5.30
2019-05-25T02:22:56.889Z,4.83
2019-05-25T02:25:27.418Z,7.17
2019-05-25T02:27:57.922Z,6.10
2019-05-25T02:30:29.048Z,6.33
2019-05-25T02:33:00.535Z,7.07
2019-05-25T02:35:31.938Z,6.63
2019-05-25T02:38:02.396Z,5.83
2019-05-25T02:40:33.086Z,9.23
2019-05-25T02:43:03.529Z,6.07
2019-05-25T02:45:34.016Z,4.97
2019-05-25T02:48:04.640Z,7.07
2019-05-25T02:50:35.063Z,7.47
2019-05-25T02:53:05.778Z,5.73
2019-05-25T02:55:36.225Z,7.00
2019-05-25T02:58:07.039Z,6.50
2019-05-25T03:00:37.896Z,8.57
2019-05-25T03:03:08.492Z,7.50
2019-05-25T03:05:39.086Z,6.87
2019-05-25T03:08:09.577Z,7.80
2019-05-25T03:10:41.106Z,9.00
2019-05-25T03:13:11.930Z,6.43
2019-05-25T03:15:42.380Z,8.30
2019-05-25T03:18:12.829Z,10.00
2019-05-25T03:20:43.327Z,8.13
2019-05-25T03:23:13.834Z,11.63
2019-05-25T03:25:49.478Z,9.13
2019-05-25T03:28:17.281Z,9.27
2019-05-25T03:30:47.770Z,9.60
2019-05-25T03:33:18.218Z,9.53
2019-05-25T03:35:48.663Z,9.87
2019-05-25T03:38:19.194Z,10.10
2019-05-25T03:40:49.817Z,11.00
2019-05-25T03:43:20.345Z,11.03
2019-05-25T03:45:51.322Z,11.53
2019-05-25T03:48:21.803Z,11.77
2019-05-25T03:50:52.373Z,13.83
2019-05-25T03:53:22.912Z,11.03
2019-05-25T03:56:05.277Z,12.07
2019-05-25T03:58:25.566Z,11.40
2019-05-25T04:00:56.073Z,11.67
2019-05-25T04:03:26.605Z,13.13
2019-05-25T04:05:57.046Z,12.83
2019-05-25T04:08:27.553Z,10.27
2019-05-25T04:10:58.079Z,12.00
2019-05-25T04:13:28.489Z,11.00
2019-05-25T04:16:01.625Z,12.40
2019-05-25T04:18:32.604Z,11.23
2019-05-25T04:21:03.079Z,11.33
2019-05-25T04:23:33.808Z,9.50
2019-05-25T04:26:04.325Z,8.37
2019-05-25T04:28:34.798Z,11.97
2019-05-25T04:31:05.607Z,10.63
2019-05-25T04:33:36.316Z,8.97
2019-05-25T04:36:06.744Z,10.13
2019-05-25T04:38:37.669Z,10.27
2019-05-25T04:41:08.089Z,10.87
2019-05-25T04:43:38.684Z,8.13
2019-05-25T04:46:09.124Z,9.50
2019-05-25T04:48:39.611Z,8.87
2019-05-25T04:51:10.618Z,10.33
2019-05-25T04:53:41.122Z,9.40
2019-05-25T04:56:11.585Z,11.73
2019-05-25T04:58:42.223Z,11.13
2019-05-25T05:01:12.672Z,9.70
2019-05-25T05:03:43.112Z,11.07
2019-05-25T05:06:13.547Z,9.17
2019-05-25T05:08:44.030Z,8.13
2019-05-25T05:11:14.866Z,8.53
2019-05-25T05:13:45.258Z,11.73
2019-05-25T05:16:15.709Z,10.07
2019-05-25T05:18:46.168Z,6.53
2019-05-25T05:21:16.657Z,8.47
2019-05-25T05:23:47.128Z,10.07
2019-05-25T05:26:17.677Z,10.23
2019-05-25T05:28:49.257Z,10.07
2019-05-25T05:31:23.443Z,8.53
2019-05-25T05:33:52.180Z,10.87
2019-05-25T05:36:24.824Z,10.37
2019-05-25T05:38:57.794Z,12.77
2019-05-25T05:41:31.795Z,11.03
2019-05-25T05:44:04.729Z,9.27
2019-05-25T05:46:37.080Z,10.23
2019-05-25T05:49:11.148Z,14.80
2019-05-25T05:51:45.123Z,7.73
2019-05-25T05:54:19.576Z,9.57
2019-05-25T05:56:50.480Z,7.63
2019-05-25T05:59:21.019Z,8.20
2019-05-25T06:01:51.537Z,9.17
2019-05-25T06:04:21.975Z,8.93
2019-05-25T06:06:52.418Z,11.43
2019-05-25T06:09:23.046Z,8.67
2019-05-25T06:11:53.492Z,6.53
2019-05-25T06:14:24.219Z,9.13
2019-05-25T06:16:54.833Z,7.20
2019-05-25T06:19:25.278Z,7.93
2019-05-25T06:21:55.744Z,8.27
2019-05-25T06:24:26.213Z,5.67
2019-05-25T06:26:56.781Z,8.53
2019-05-25T06:29:27.432Z,8.73
2019-05-25T06:31:58.060Z,10.03
2019-05-25T06:34:28.545Z,8.00
2019-05-25T06:36:59.001Z,5.37
2019-05-25T06:39:29.480Z,5.67
2019-05-25T06:41:59.966Z,8.00
2019-05-25T06:44:30.562Z,7.03
2019-05-25T06:47:00.967Z,10.07
2019-05-25T06:49:31.472Z,6.40
2019-05-25T06:52:01.890Z,8.37
2019-05-25T06:54:32.519Z,6.60
2019-05-25T06:57:03.044Z,6.47
2019-05-25T06:59:33.664Z,8.03
2019-05-25T07:02:04.340Z,8.67
2019-05-25T07:04:34.762Z,9.00
2019-05-25T07:07:05.225Z,8.67
2019-05-25T07:09:35.681Z,8.23
2019-05-25T07:12:06.146Z,12.47
2019-05-25T07:14:36.601Z,11.33
2019-05-25T07:17:07.053Z,12.90
2019-05-25T07:19:37.686Z,15.27
2019-05-25T07:22:08.235Z,12.70
2019-05-25T07:24:38.703Z,12.50
2019-05-25T07:27:09.183Z,12.00
2019-05-25T07:29:39.594Z,10.73
2019-05-25T07:32:32.495Z,15.10
2019-05-25T07:35:03.145Z,11.10
2019-05-25T07:37:33.681Z,11.40
2019-05-25T07:40:04.678Z,13.47
2019-05-25T07:42:35.159Z,14.07
2019-05-25T07:45:06.295Z,18.20
2019-05-25T07:47:36.849Z,10.47
2019-05-25T07:50:08.548Z,12.40
2019-05-25T07:52:39.027Z,9.83
2019-05-25T07:55:10.231Z,12.37
2019-05-25T07:57:41.762Z,13.27
2019-05-25T08:00:12.447Z,10.23
2019-05-25T08:02:42.928Z,9.50
2019-05-25T08:05:13.692Z,17.73
2019-05-25T08:07:44.335Z,11.20
2019-05-25T08:10:15.399Z,12.80
2019-05-25T08:12:46.031Z,10.70
2019-05-25T08:15:16.873Z,12.87
2019-05-25T08:17:47.426Z,10.37
2019-05-25T08:20:17.853Z,11.40
2019-05-25T08:22:48.303Z,9.17
2019-05-25T08:25:18.733Z,9.90
2019-05-25T08:27:49.198Z,8.53
2019-05-25T08:30:19.654Z,10.33
2019-05-25T08:32:50.149Z,15.77
2019-05-25T08:35:20.621Z,16.33
2019-05-25T08:37:51.197Z,10.83
2019-05-25T08:40:21.682Z,11.17
2019-05-25T08:42:52.582Z,9.63
2019-05-25T08:45:25.982Z,13.13
2019-05-25T08:47:57.520Z,12.33
2019-05-25T08:50:37.723Z,11.17
2019-05-25T08:53:00.617Z,11.57
2019-05-25T08:55:31.143Z,11.87
2019-05-25T08:58:01.573Z,12.23
2019-05-25T09:00:32.127Z,12.77
2019-05-25T09:03:02.794Z,33.70
2019-05-25T09:05:33.235Z,8.70
2019-05-25T09:08:03.734Z,9.07
2019-05-25T09:10:34.286Z,12.40
2019-05-25T09:13:04.922Z,9.07
2019-05-25T09:15:35.467Z,9.50
2019-05-25T09:18:05.983Z,12.17
2019-05-25T09:20:36.542Z,11.83
2019-05-25T09:23:07.205Z,9.40
2019-05-25T09:25:37.697Z,10.23
2019-05-25T09:28:08.221Z,8.90
2019-05-25T09:30:38.830Z,8.60
2019-05-25T09:33:09.339Z,9.53
2019-05-25T09:35:39.888Z,7.80
2019-05-25T09:38:10.393Z,7.80
2019-05-25T09:40:41.410Z,12.73
2019-05-25T09:43:11.968Z,15.90
2019-05-25T09:45:43.020Z,10.10
2019-05-25T09:48:13.544Z,12.77
2019-05-25T09:50:44.366Z,11.77
2019-05-25T09:53:14.912Z,9.50
2019-05-25T09:55:45.515Z,10.40
2019-05-25T09:58:16.042Z,13.03
2019-05-25T10:00:46.816Z,11.90
2019-05-25T10:03:17.562Z,9.93
2019-05-25T10:05:48.146Z,9.00
2019-05-25T10:08:18.630Z,10.57
2019-05-25T10:10:49.080Z,10.80
2019-05-25T10:13:19.731Z,9.93
2019-05-25T10:15:50.180Z,11.97
2019-05-25T10:18:20.941Z,7.93
2019-05-25T10:20:51.839Z,8.87
2019-05-25T10:23:22.532Z,9.67
2019-05-25T10:25:53.358Z,9.70
2019-05-25T10:28:24.090Z,8.97
2019-05-25T10:30:55.232Z,12.73
2019-05-25T10:33:25.857Z,7.73
2019-05-25T10:35:56.424Z,9.37
2019-05-25T10:38:26.918Z,9.10
2019-05-25T10:40:58.671Z,8.93
2019-05-25T10:43:29.532Z,6.67
2019-05-25T10:46:00.046Z,8.57
2019-05-25T10:48:30.614Z,7.70
2019-05-25T10:51:01.156Z,8.80
2019-05-25T10:53:31.870Z,9.77
2019-05-25T10:56:02.283Z,7.73
2019-05-25T10:58:32.808Z,7.90
2019-05-25T11:01:03.327Z,9.13
2019-05-25T11:03:33.781Z,7.90
2019-05-25T11:06:05.232Z,7.37
2019-05-25T11:08:35.719Z,9.13
2019-05-25T11:11:06.145Z,8.70
2019-05-25T11:13:37.301Z,8.73
2019-05-25T11:16:07.833Z,7.23
2019-05-25T11:18:38.406Z,7.60
2019-05-25T11:21:08.907Z,9.43
2019-05-25T11:23:39.340Z,8.63
2019-05-25T11:26:09.960Z,7.93
2019-05-25T11:28:40.454Z,9.10
2019-05-25T11:31:11.182Z,8.40
2019-05-25T11:33:42.005Z,9.03
2019-05-25T11:36:12.539Z,8.17
2019-05-25T11:38:43.161Z,6.73
2019-05-25T11:41:13.697Z,6.43
2019-05-25T11:43:44.631Z,6.00
2019-05-25T11:46:15.187Z,7.97
2019-05-25T11:48:45.786Z,7.20
2019-05-25T11:51:16.318Z,6.60
2019-05-25T11:53:47.297Z,7.13
2019-05-25T11:56:18.015Z,7.13
2019-05-25T11:58:48.600Z,9.33
2019-05-25T12:01:19.464Z,5.43
2019-05-25T12:03:50.058Z,7.03
2019-05-25T12:06:20.646Z,5.37
2019-05-25T12:08:51.484Z,7.30
2019-05-25T12:11:21.882Z,5.20
2019-05-25T12:13:52.308Z,5.87
2019-05-25T12:16:22.801Z,8.30
2019-05-25T12:18:53.476Z,5.97
2019-05-25T12:21:24.179Z,7.90
2019-05-25T12:23:54.685Z,14.83
2019-05-25T12:26:25.252Z,6.87
2019-05-25T12:28:56.223Z,7.50
2019-05-25T12:31:26.727Z,4.87
2019-05-25T12:33:57.309Z,7.70
2019-05-25T12:36:27.773Z,10.23
2019-05-25T12:38:58.327Z,5.20
2019-05-25T12:41:28.796Z,4.80
2019-05-25T12:43:59.272Z,5.37
2019-05-25T12:46:29.851Z,7.03
2019-05-25T12:49:00.322Z,4.63
2019-05-25T12:51:30.880Z,7.07
2019-05-25T12:54:01.342Z,7.03
2019-05-25T12:56:31.841Z,6.83
2019-05-25T12:59:02.460Z,6.00
2019-05-25T13:01:33.096Z,13.37
2019-05-25T13:04:04.013Z,8.27
2019-05-25T13:06:35.491Z,6.53
2019-05-25T13:09:08.457Z,5.57
2019-05-25T13:11:38.966Z,10.60
2019-05-25T13:14:14.431Z,4.97
2019-05-25T13:16:41.843Z,6.90
2019-05-25T13:19:12.399Z,6.93
2019-05-25T13:21:43.046Z,6.77
2019-05-25T13:24:13.754Z,7.60
2019-05-25T13:26:44.797Z,7.07
2019-05-25T13:29:15.343Z,4.73
2019-05-25T13:31:45.836Z,4.23
2019-05-25T13:34:16.249Z,9.40
2019-05-25T13:36:46.906Z,9.37
2019-05-25T13:39:17.352Z,7.87
2019-05-25T13:41:47.820Z,6.83
2019-05-25T13:44:18.365Z,8.73
2019-05-25T13:46:49.107Z,5.33
2019-05-25T13:49:19.778Z,7.20
2019-05-25T13:51:50.622Z,4.93
2019-05-25T13:54:21.202Z,7.53
2019-05-25T13:56:51.678Z,4.67
2019-05-25T13:59:22.130Z,5.97
2019-05-25T14:01:52.929Z,7.10
2019-05-25T14:04:23.395Z,6.77
2019-05-25T14:06:53.825Z,5.47
2019-05-25T14:09:24.600Z,6.53
2019-05-25T14:11:55.514Z,4.13
2019-05-25T14:14:26.109Z,9.13
2019-05-25T14:16:56.653Z,4.10
2019-05-25T14:19:27.328Z,5.13
2019-05-25T14:21:57.999Z,4.73
2019-05-25T14:24:28.612Z,7.30
2019-05-25T14:26:59.055Z,5.13
2019-05-25T14:29:29.610Z,6.13
2019-05-25T14:32:00.091Z,5.17
2019-05-25T14:34:30.538Z,4.43
2019-05-25T14:37:01.063Z,4.37
2019-05-25T14:39:31.496Z,6.17
2019-05-25T14:42:02.320Z,3.57
2019-05-25T14:44:32.934Z,5.00
2019-05-25T14:47:03.811Z,2.73
2019-05-25T14:49:34.239Z,3.23
2019-05-25T14:52:04.898Z,3.00
2019-05-25T14:54:35.514Z,5.00
2019-05-25T14:57:06.079Z,6.67
2019-05-25T14:59:36.657Z,4.77
2019-05-25T15:02:09.568Z,3.63
2019-05-25T15:04:40.174Z,3.90
2019-05-25T15:07:10.840Z,2.97
2019-05-25T15:09:41.821Z,4.40
2019-05-25T15:12:12.455Z,6.83
2019-05-25T15:14:43.222Z,4.47
2019-05-25T15:17:13.683Z,3.70
2019-05-25T15:19:44.167Z,5.00
2019-05-25T15:22:14.860Z,6.20
2019-05-25T15:24:45.715Z,3.80
2019-05-25T15:27:16.481Z,3.77
2019-05-25T15:29:47.917Z,2.90
2019-05-25T15:32:20.507Z,3.43
2019-05-25T15:34:50.704Z,3.77
2019-05-25T15:37:21.261Z,2.53
2019-05-25T15:39:52.107Z,3.53
2019-05-25T15:42:22.595Z,3.23
2019-05-25T15:44:53.256Z,3.90
2019-05-25T15:47:23.684Z,3.07
2019-05-25T15:49:54.564Z,3.97
2019-05-25T15:52:25.329Z,2.67
2019-05-25T15:54:55.865Z,4.93
2019-05-25T15:57:26.705Z,2.43
2019-05-25T15:59:57.222Z,3.43
2019-05-25T16:02:36.769Z,6.73
2019-05-25T16:05:00.494Z,2.50
2019-05-25T16:07:32.136Z,4.23
2019-05-25T16:10:02.818Z,3.60
2019-05-25T16:12:33.230Z,3.03
2019-05-25T16:15:03.722Z,3.23
2019-05-25T16:17:34.192Z,3.43
2019-05-25T16:20:05.289Z,2.13
2019-05-25T16:22:35.867Z,3.30
2019-05-25T16:25:07.549Z,4.30
2019-05-25T16:27:38.033Z,2.83
2019-05-25T16:30:08.911Z,4.23
2019-05-25T16:33:10.093Z,6.40
2019-05-25T16:35:11.880Z,4.57
2019-05-25T16:37:43.012Z,3.57
2019-05-25T16:40:14.783Z,3.90
2019-05-25T16:42:45.269Z,3.50
2019-05-25T16:45:16.161Z,3.43
2019-05-25T16:47:46.911Z,3.27
2019-05-25T16:50:19.985Z,3.40
2019-05-25T16:52:50.547Z,4.20
2019-05-25T16:55:21.107Z,3.33
2019-05-25T16:57:51.953Z,4.37
2019-05-25T17:00:41.493Z,3.93
2019-05-25T17:03:26.998Z,3.73
2019-05-25T17:05:44.208Z,4.80
2019-05-25T17:08:14.810Z,3.03
2019-05-25T17:10:45.415Z,6.47
2019-05-25T17:13:15.842Z,4.47
2019-05-25T17:15:46.334Z,3.77
2019-05-25T17:18:16.900Z,3.20
2019-05-25T17:20:47.414Z,3.80
2019-05-25T17:23:17.852Z,2.40
2019-05-25T17:25:48.380Z,4.70
2019-05-25T17:28:18.824Z,4.40
2019-05-25T17:30:49.563Z,3.30
2019-05-25T17:33:20.030Z,4.23
2019-05-25T17:35:50.487Z,2.17
2019-05-25T17:38:20.980Z,4.77
2019-05-25T17:40:51.422Z,4.67
2019-05-25T17:43:21.872Z,4.93
2019-05-25T17:45:52.362Z,5.87
2019-05-25T17:48:22.858Z,2.80
2019-05-25T17:50:53.313Z,2.00
2019-05-25T17:53:23.839Z,3.20
2019-05-25T17:55:54.343Z,3.50
2019-05-25T17:58:24.877Z,2.30
2019-05-25T18:00:55.350Z,2.87
2019-05-25T18:03:25.942Z,1.70
2019-05-25T18:05:56.415Z,1.80
2019-05-25T18:08:26.968Z,2.63
2019-05-25T18:10:57.445Z,1.97
2019-05-25T18:13:29.081Z,3.13
2019-05-25T18:15:59.779Z,4.67
2019-05-25T18:18:30.275Z,3.03
2019-05-25T18:21:00.812Z,3.93
2019-05-25T18:23:31.366Z,4.10
2019-05-25T18:26:01.907Z,5.50
2019-05-25T18:28:32.483Z,4.60
2019-05-25T18:31:03.040Z,3.17
2019-05-25T18:33:33.581Z,5.00
2019-05-25T18:36:04.049Z,3.17
2019-05-25T18:38:34.647Z,3.07
2019-05-25T18:41:05.230Z,2.43
2019-05-25T18:43:35.755Z,4.00
2019-05-25T18:46:06.736Z,2.70
2019-05-25T18:48:37.252Z,3.03
2019-05-25T18:51:07.633Z,3.93
2019-05-25T18:53:38.076Z,3.97
2019-05-25T18:56:08.544Z,3.50
2019-05-25T18:58:39.051Z,3.40
2019-05-25T19:01:09.579Z,2.30
2019-05-25T19:03:40.167Z,2.83
2019-05-25T19:06:10.716Z,3.83
2019-05-25T19:08:41.153Z,5.13
2019-05-25T19:11:11.833Z,2.00
2019-05-25T19:13:42.318Z,4.00
2019-05-25T19:16:12.880Z,3.93
2019-05-25T19:18:43.530Z,2.87
2019-05-25T19:21:14.077Z,3.37
2019-05-25T19:23:44.509Z,5.07
2019-05-25T19:26:14.923Z,2.33
2019-05-25T19:28:45.420Z,3.03
2019-05-25T19:31:15.863Z,4.70
2019-05-25T19:33:46.427Z,4.53
2019-05-25T19:36:16.910Z,3.53
2019-05-25T19:38:47.433Z,2.83
2019-05-25T19:41:17.925Z,5.33
2019-05-25T19:43:48.390Z,2.57
2019-05-25T19:46:18.848Z,4.27
2019-05-25T19:48:49.328Z,5.83
2019-05-25T19:51:19.785Z,6.57
2019-05-25T19:53:50.304Z,3.97
2019-05-25T19:56:20.770Z,6.20
2019-05-25T19:58:51.211Z,4.93
2019-05-25T20:01:21.765Z,4.50
2019-05-25T20:03:52.210Z,7.17
2019-05-25T20:06:22.720Z,8.60
2019-05-25T20:08:53.175Z,5.20
2019-05-25T20:11:23.638Z,5.73
2019-05-25T20:13:54.084Z,5.97
2019-05-25T20:16:25.237Z,5.17
2019-05-25T20:18:55.924Z,5.63
2019-05-25T20:21:26.381Z,5.97
2019-05-25T20:23:56.879Z,7.00
2019-05-25T20:26:27.435Z,7.00
2019-05-25T20:28:57.869Z,6.73
2019-05-25T20:31:28.315Z,5.73
2019-05-25T20:33:58.881Z,5.20
2019-05-25T20:36:29.493Z,7.60
2019-05-25T20:38:59.936Z,6.27
2019-05-25T20:41:30.490Z,6.53
2019-05-25T20:44:01.058Z,6.20
2019-05-25T20:46:31.510Z,7.10
2019-05-25T20:49:02.165Z,8.23
2019-05-25T20:51:32.678Z,7.77
2019-05-25T20:54:03.203Z,10.27
2019-05-25T20:56:33.688Z,9.37
2019-05-25T20:59:04.114Z,11.60
2019-05-25T21:01:34.559Z,10.03
2019-05-25T21:04:05.084Z,13.33
2019-05-25T21:06:35.616Z,10.47
2019-05-25T21:09:07.985Z,11.17
2019-05-25T21:11:38.586Z,13.07
2019-05-25T21:14:09.031Z,11.83
2019-05-25T21:16:39.525Z,11.47
2019-05-25T21:19:09.976Z,15.67
2019-05-25T21:21:40.535Z,13.03
2019-05-25T21:24:11.026Z,15.70
2019-05-25T21:26:41.591Z,12.33
2019-05-25T21:29:12.053Z,15.90
2019-05-25T21:31:42.547Z,20.47
2019-05-25T21:34:13.032Z,19.73
2019-05-25T21:36:43.535Z,20.33
2019-05-25T21:39:14.032Z,20.33
2019-05-25T21:41:44.542Z,21.43
2019-05-25T21:44:15.072Z,21.97
2019-05-25T21:46:45.579Z,23.20
2019-05-25T21:49:16.146Z,22.03
2019-05-25T21:51:46.649Z,22.97
2019-05-25T21:54:17.086Z,22.40
2019-05-25T21:56:47.685Z,22.37
2019-05-25T21:59:18.158Z,17.03
2019-05-25T22:01:48.626Z,15.70
2019-05-25T22:04:19.141Z,15.20
2019-05-25T22:06:49.689Z,15.43
2019-05-25T22:09:20.290Z,17.90
2019-05-25T22:11:50.780Z,17.57
2019-05-25T22:14:21.229Z,17.50
2019-05-25T22:16:51.853Z,19.97
2019-05-25T22:19:22.348Z,20.17
2019-05-25T22:21:52.820Z,20.80
2019-05-25T22:24:23.373Z,19.83
2019-05-25T22:26:54.121Z,20.88
2019-05-25T22:29:24.688Z,21.80
2019-05-25T22:31:55.167Z,21.83
2019-05-25T22:34:25.707Z,22.87
2019-05-25T22:36:56.571Z,25.43
2019-05-25T22:39:27.099Z,24.23
2019-05-25T22:41:57.580Z,23.83
2019-05-25T22:44:28.218Z,24.53
2019-05-25T22:46:59.697Z,24.27
2019-05-25T22:49:30.262Z,24.83
2019-05-25T22:52:00.930Z,26.53
2019-05-25T22:54:31.482Z,24.93
2019-05-25T22:57:01.966Z,24.63
2019-05-25T22:59:32.683Z,25.50
2019-05-25T23:02:03.494Z,26.37
2019-05-25T23:04:33.934Z,27.53
2019-05-25T23:07:05.282Z,29.53
2019-05-25T23:09:36.191Z,27.40
2019-05-25T23:12:06.808Z,27.73
2019-05-25T23:14:37.285Z,27.70
2019-05-25T23:17:07.864Z,30.63
2019-05-25T23:19:38.390Z,30.23
2019-05-25T23:22:09.348Z,31.33
2019-05-25T23:24:41.755Z,33.30
2019-05-25T23:27:15.371Z,32.90
2019-05-25T23:29:44.704Z,34.13
2019-05-25T23:32:15.365Z,40.10
2019-05-25T23:34:45.976Z,35.80
2019-05-25T23:37:16.487Z,35.60
2019-05-25T23:39:47.033Z,39.20
2019-05-25T23:42:17.741Z,37.93
2019-05-25T23:44:48.340Z,41.77
2019-05-25T23:47:18.823Z,39.70
2019-05-25T23:49:49.411Z,38.53
2019-05-25T23:52:19.875Z,38.77
2019-05-25T23:54:50.322Z,38.70
2019-05-25T23:57:21.045Z,37.97
2019-05-25T23:59:51.646Z,41.77
